Curtis, NE

9:41 AM CST on February 13, 2016 (GMT -0600)
McCook Municipal | | Change Station
CLOSE
Current Station
Airport
Location: McCook,
Elevation: 2579 ft
Nearby Weather Stations
Active Advisory: Special Statement

Elev 2579 ft 40.20 °N, 100.59 °W | Updated 41 minutes ago

Overcast
Overcast
21 °F
Feels Like 7 °F
N
16
Wind Variable Wind from SSE

Today
High -- | Low -- °F
--% Chance of Precip.
Yesterday
High -- | Low -- °F
Precip. -- in
Pressure 30.31 in
Visibility 8.0 miles
Clouds Overcast 1100 ft
Windchill 7 °F
Dew Point 18 °F
Humidity 88%
Rainfall 0.00 in
Snow Depth Not available.
7:38 AM 6:14 PM
Waxing Crescent, 31% visible
SPECI KMCK 131500Z AUTO 15014KT 8SM OVC011 M06/M08 A3031 RMK AO2 T10611078
Pressure 30.31 in
Visibility 8.0 miles
Clouds Overcast 1100 ft
Windchill 7 °F
Dew Point 18 °F
Humidity 88%
Rainfall 0.00 in
Snow Depth Not available.
7:38 AM 6:14 PM
Waxing Crescent, 31% visible
SPECI KMCK 131500Z AUTO 15014KT 8SM OVC011 M06/M08 A3031 RMK AO2 T10611078

10-Day Weather Forecast

Almanac

Astronomy

Feb. 13, 2016 Rise Set
Actual Time
Civil Twilight
Nautical Twilight
Astronomical Twilight
Moon
Length of Visible Light
Length of Day
Tomorrow will be .
, % of the Moon is Illuminated

Today's Extremes

State Highs State Lows

Community

WunderPhotos

Upload Photos

1,892,587 photos uploaded!

WunderBlog® & News

Nearby

Air Quality

  Air Quality AQ Index Pollutant
Not available.

Snow Depth

Station Depth Elevation

Earthquake Activity

City Distance Mag. Time & Date
Minimum magnitude displayed is 2.5.

Coastal Water Temperatures

Place Temperature

Stations

Nearby Weather Stations

Station Location Temp. Windchill Dew Point Humidity Wind Precip. Elev Updated Type
                   

Watches & Warnings

Special Statement
Issued: 7:47 AM MST Feb. 13, 2016 – National Weather Service

... Freezing drizzle leading to slick conditions...

Freezing drizzle and freezing fog will continue through early
afternoon across the western sandhills and southwest Nebraska. A
thin glaze of ice is possible... resulting in slick roads and
walkways.


Ds


847 am CST Sat Feb 13 2016 /747 am MST Sat Feb 13 2016/

... Freezing drizzle leading to slick conditions...

Freezing drizzle and freezing fog will continue through early
afternoon across the western sandhills and southwest Nebraska. A
thin glaze of ice is possible... resulting in slick roads and
walkways.


Ds